Time;durP1;ratioP1;P1;durP2;ratioP2;P2;SDS_P1;SDS_P2;PMS_P1;PMS_P2;Temp;Humidity;BMP_temperature;BMP_pressure;BME280_temperature;BME280_humidity;BME280_pressure;Samples;Min_cycle;Max_cycle;Signal;HPM_P1;HPM_P2
2022/03/30 00:01:31;;;;;;;23.52;8.60;;;11.60;58.80;;;;;;6155915;23;20040;-92
2022/03/30 00:03:58;;;;;;;19.42;8.43;;;11.60;59.10;;;;;;6155280;23;20021;-92
2022/03/30 00:06:26;;;;;;;18.45;9.18;;;11.60;59.00;;;;;;6154921;23;20021;-91
2022/03/30 00:08:53;;;;;;;19.45;8.80;;;11.60;59.20;;;;;;6155536;23;20017;-92
2022/03/30 00:11:22;;;;;;;20.92;9.73;;;11.60;59.40;;;;;;6155965;23;20185;-91
2022/03/30 00:13:52;;;;;;;20.83;9.73;;;11.50;59.40;;;;;;6155227;23;20063;-92
2022/03/30 00:16:19;;;;;;;21.20;9.27;;;11.50;59.60;;;;;;6180258;23;20080;-92
2022/03/30 00:18:50;;;;;;;19.30;10.10;;;11.50;59.70;;;;;;6154511;23;20029;-92
2022/03/30 00:21:18;;;;;;;18.63;9.18;;;11.50;59.70;;;;;;6155719;23;20049;-92
2022/03/30 00:23:45;;;;;;;24.15;9.90;;;11.50;60.30;;;;;;6155655;23;20025;-92
2022/03/30 00:26:12;;;;;;;23.98;9.65;;;11.50;59.90;;;;;;6155161;23;20016;-92
2022/03/30 00:28:43;;;;;;;19.17;9.02;;;11.40;60.50;;;;;;6155189;23;20924;-92
2022/03/30 00:31:12;;;;;;;18.60;9.40;;;11.40;60.30;;;;;;6154956;23;20083;-92
2022/03/30 00:33:39;;;;;;;23.98;11.70;;;11.50;60.20;;;;;;6155608;23;20510;-92
2022/03/30 00:36:07;;;;;;;17.80;9.32;;;11.50;60.10;;;;;;6155592;23;20017;-94
2022/03/30 00:38:35;;;;;;;20.75;10.07;;;11.40;59.90;;;;;;6179503;23;20053;-92
2022/03/30 00:41:04;;;;;;;19.60;9.23;;;11.30;60.00;;;;;;6154559;23;20679;-92
2022/03/30 00:43:33;;;;;;;18.33;9.45;;;11.40;59.90;;;;;;6154693;23;20025;-92
2022/03/30 00:46:00;;;;;;;18.90;9.57;;;11.40;60.10;;;;;;6153944;23;20408;-93
2022/03/30 00:48:28;;;;;;;18.90;8.30;;;11.40;60.30;;;;;;6155411;23;20017;-92
2022/03/30 00:50:55;;;;;;;17.77;9.23;;;11.30;60.40;;;;;;6156250;23;20041;-90
2022/03/30 00:53:23;;;;;;;23.55;9.38;;;11.30;60.60;;;;;;6160975;23;20017;-91
2022/03/30 00:55:52;;;;;;;19.13;9.00;;;11.30;60.50;;;;;;6159032;23;20116;-92
2022/03/30 00:58:22;;;;;;;18.27;9.32;;;11.30;60.60;;;;;;6159862;23;20021;-93
2022/03/30 01:00:50;;;;;;;16.88;8.48;;;11.20;60.30;;;;;;6161044;23;20401;-92
2022/03/30 01:03:17;;;;;;;16.90;9.27;;;11.20;60.60;;;;;;6162133;23;20021;-92
2022/03/30 01:05:45;;;;;;;16.77;8.85;;;11.30;60.70;;;;;;6157448;23;20046;-91
2022/03/30 01:08:12;;;;;;;25.70;9.05;;;11.20;60.70;;;;;;6154404;23;20040;-91
2022/03/30 01:10:40;;;;;;;16.52;8.55;;;11.20;60.20;;;;;;6151430;23;20017;-90
2022/03/30 01:13:07;;;;;;;17.90;8.93;;;11.20;59.80;;;;;;6152692;23;20044;-91
2022/03/30 01:15:37;;;;;;;13.93;7.75;;;11.10;59.60;;;;;;6151526;23;20383;-92
2022/03/30 01:18:05;;;;;;;12.93;7.13;;;11.20;59.80;;;;;;6152965;23;20021;-92
2022/03/30 01:20:33;;;;;;;15.07;7.57;;;11.30;60.10;;;;;;6157047;23;20028;-92
2022/03/30 01:23:02;;;;;;;17.67;7.05;;;11.20;59.60;;;;;;6156333;23;20040;-92
2022/03/30 01:25:31;;;;;;;20.65;8.40;;;11.20;59.90;;;;;;6155497;23;20028;-92
2022/03/30 01:27:59;;;;;;;15.38;7.20;;;11.20;60.00;;;;;;6158907;23;20073;-93
2022/03/30 01:33:12;;;;;;;14.63;7.78;;;11.00;60.50;;;;;;6180232;23;20025;-92
2022/03/30 01:35:40;;;;;;;17.20;7.97;;;11.10;61.40;;;;;;6129586;23;20017;-91
2022/03/30 01:38:09;;;;;;;16.40;8.45;;;11.10;60.70;;;;;;6154317;23;20075;-92
2022/03/30 01:40:36;;;;;;;11.98;7.07;;;11.00;61.20;;;;;;6155732;23;20017;-93
2022/03/30 01:43:04;;;;;;;13.82;6.95;;;10.90;61.00;;;;;;6154277;23;20028;-91
2022/03/30 01:45:32;;;;;;;14.00;7.53;;;11.00;61.10;;;;;;6153884;23;20474;-92
2022/03/30 01:48:00;;;;;;;16.05;7.10;;;10.90;61.60;;;;;;6155784;23;20499;-91
2022/03/30 01:50:29;;;;;;;19.23;8.77;;;10.90;61.60;;;;;;6155219;23;20431;-90
2022/03/30 01:53:00;;;;;;;13.25;7.78;;;10.90;62.10;;;;;;6154127;23;20040;-91
2022/03/30 01:55:27;;;;;;;12.52;7.38;;;10.80;62.30;;;;;;6153712;23;20100;-92
2022/03/30 01:57:58;;;;;;;13.45;6.68;;;10.80;62.30;;;;;;6154501;23;20104;-91
2022/03/30 02:00:26;;;;;;;17.55;7.43;;;10.80;62.50;;;;;;6154277;23;20031;-92
2022/03/30 02:02:54;;;;;;;19.08;8.52;;;10.80;62.90;;;;;;6153402;23;20088;-91
2022/03/30 02:05:21;;;;;;;16.08;6.97;;;10.70;63.00;;;;;;6155092;23;20025;-91
2022/03/30 02:07:51;;;;;;;13.60;7.53;;;10.70;63.10;;;;;;6153849;23;20013;-91
2022/03/30 02:10:19;;;;;;;14.25;7.78;;;10.60;63.20;;;;;;6154294;23;20036;-90
2022/03/30 02:12:46;;;;;;;14.40;7.32;;;10.60;63.40;;;;;;6179657;23;20045;-91
2022/03/30 02:15:14;;;;;;;15.38;6.80;;;10.70;63.50;;;;;;6155567;23;20199;-92
2022/03/30 02:17:42;;;;;;;13.10;6.78;;;10.60;63.80;;;;;;6178588;23;20029;-92
2022/03/30 02:20:11;;;;;;;14.85;7.43;;;10.60;63.80;;;;;;6154940;23;20017;-92
2022/03/30 02:22:39;;;;;;;11.38;6.35;;;10.40;64.20;;;;;;6155189;23;20029;-92
2022/03/30 02:25:08;;;;;;;11.80;6.38;;;10.50;64.40;;;;;;6154287;23;20767;-92
2022/03/30 02:27:36;;;;;;;15.13;7.00;;;10.50;64.60;;;;;;6154173;23;20021;-92
2022/03/30 02:30:08;;;;;;;12.90;6.70;;;10.50;64.60;;;;;;6155649;23;20028;-91
2022/03/30 02:32:40;;;;;;;11.82;6.47;;;10.40;64.80;;;;;;6156622;23;20025;-92
2022/03/30 02:35:08;;;;;;;14.98;6.88;;;10.40;65.20;;;;;;6157727;23;20072;-92
2022/03/30 02:37:35;;;;;;;16.50;6.85;;;10.30;65.60;;;;;;6156858;23;20056;-92
2022/03/30 02:40:03;;;;;;;11.45;6.60;;;10.40;65.50;;;;;;6156913;23;20055;-91
2022/03/30 02:42:34;;;;;;;12.02;5.88;;;10.30;65.60;;;;;;6156087;23;20024;-93
2022/03/30 02:45:01;;;;;;;12.57;5.93;;;10.40;65.70;;;;;;6156186;23;20025;-91
2022/03/30 02:50:17;;;;;;;12.15;5.95;;;10.40;65.90;;;;;;6157083;23;20021;-93
2022/03/30 02:52:44;;;;;;;14.68;6.03;;;10.40;65.80;;;;;;6156612;23;20099;-92
2022/03/30 02:55:12;;;;;;;17.10;6.75;;;10.40;66.00;;;;;;6156599;23;20017;-93
2022/03/30 02:57:40;;;;;;;12.43;5.78;;;10.40;65.90;;;;;;6156558;23;20067;-92
2022/03/30 03:00:11;;;;;;;15.60;6.65;;;10.40;66.40;;;;;;6156017;23;20055;-93
2022/03/30 03:02:38;;;;;;;11.77;6.75;;;10.40;66.10;;;;;;6155966;23;20071;-92
2022/03/30 03:05:08;;;;;;;10.25;6.20;;;10.40;66.20;;;;;;6157335;23;20025;-92
2022/03/30 03:07:35;;;;;;;11.18;6.30;;;10.40;66.40;;;;;;6155893;23;20021;-93
2022/03/30 03:10:06;;;;;;;11.75;5.70;;;10.20;66.90;;;;;;6156125;23;20021;-93
2022/03/30 03:12:33;;;;;;;13.18;6.35;;;10.30;67.60;;;;;;6156787;23;20056;-92
2022/03/30 03:15:03;;;;;;;12.35;6.15;;;10.30;67.20;;;;;;6156234;23;20024;-92
2022/03/30 03:17:31;;;;;;;12.77;5.78;;;10.30;67.60;;;;;;6155356;23;20027;-93
2022/03/30 03:19:58;;;;;;;13.68;6.53;;;10.30;67.70;;;;;;6156877;23;20032;-92
2022/03/30 03:22:26;;;;;;;16.50;6.43;;;10.20;67.70;;;;;;6156736;23;20028;-93
2022/03/30 03:24:53;;;;;;;16.75;6.20;;;10.30;67.80;;;;;;6155704;23;20024;-93
2022/03/30 03:27:20;;;;;;;19.52;6.72;;;10.30;67.80;;;;;;6155318;23;20017;-93
2022/03/30 03:29:48;;;;;;;18.88;6.75;;;10.20;68.00;;;;;;6155806;23;20032;-90
2022/03/30 03:32:15;;;;;;;20.77;6.50;;;10.00;68.50;;;;;;6157070;23;20025;-94
2022/03/30 03:34:42;;;;;;;14.30;6.80;;;10.00;68.40;;;;;;6155080;23;20031;-93
2022/03/30 03:37:09;;;;;;;16.67;7.25;;;10.10;68.50;;;;;;6156585;23;20056;-92
2022/03/30 03:39:37;;;;;;;16.23;6.75;;;10.10;68.30;;;;;;6179769;23;20029;-93
2022/03/30 03:42:04;;;;;;;18.20;7.32;;;10.10;68.70;;;;;;6149494;23;20021;-93
2022/03/30 03:44:31;;;;;;;19.42;6.60;;;10.00;69.10;;;;;;6172855;23;20025;-93
2022/03/30 03:46:59;;;;;;;13.02;7.10;;;9.90;69.30;;;;;;6151444;23;20009;-93
2022/03/30 03:49:26;;;;;;;14.65;7.50;;;10.00;69.40;;;;;;6152934;23;20245;-93
2022/03/30 03:51:53;;;;;;;13.38;6.95;;;9.90;69.70;;;;;;6153560;23;20040;-92
2022/03/30 03:54:21;;;;;;;17.52;6.88;;;9.90;70.10;;;;;;6152775;23;20024;-92
2022/03/30 03:56:48;;;;;;;23.02;8.35;;;9.80;70.50;;;;;;6152534;23;20027;-92
2022/03/30 03:59:16;;;;;;;19.17;7.15;;;9.80;70.80;;;;;;6152199;23;20107;-93
2022/03/30 04:01:43;;;;;;;18.33;7.53;;;9.90;70.80;;;;;;6151403;23;20024;-92
2022/03/30 04:04:11;;;;;;;20.40;7.00;;;9.90;70.60;;;;;;6153009;23;20108;-92
2022/03/30 04:06:38;;;;;;;24.00;7.90;;;9.80;70.90;;;;;;6124290;23;20116;-92
2022/03/30 04:09:05;;;;;;;13.38;6.30;;;9.80;71.00;;;;;;6146957;23;20024;-93
2022/03/30 04:11:33;;;;;;;17.73;7.30;;;9.70;71.50;;;;;;6154783;23;20013;-93
2022/03/30 04:14:00;;;;;;;23.13;7.18;;;9.70;71.70;;;;;;6154372;23;20778;-93
2022/03/30 04:16:28;;;;;;;25.67;7.68;;;9.70;72.10;;;;;;6155099;23;20048;-93
2022/03/30 04:18:56;;;;;;;15.32;8.05;;;9.70;72.10;;;;;;6155392;23;20028;-93
2022/03/30 04:21:23;;;;;;;19.25;6.60;;;9.60;72.50;;;;;;6152969;23;20028;-93
2022/03/30 04:23:50;;;;;;;16.38;7.82;;;9.60;72.20;;;;;;6149428;23;20099;-94
2022/03/30 04:26:18;;;;;;;14.98;6.85;;;9.70;72.00;;;;;;6155213;23;20013;-93
2022/03/30 04:28:45;;;;;;;20.85;7.07;;;9.60;72.00;;;;;;6155977;23;20095;-93
2022/03/30 04:31:12;;;;;;;20.60;7.25;;;9.60;72.10;;;;;;6154894;23;20096;-93
2022/03/30 04:33:40;;;;;;;19.15;7.90;;;9.60;72.40;;;;;;6154887;23;20087;-94
2022/03/30 04:36:07;;;;;;;18.33;7.72;;;9.50;72.40;;;;;;6156211;23;20037;-93
2022/03/30 04:38:35;;;;;;;18.67;7.25;;;9.50;72.30;;;;;;6155514;23;20025;-94
2022/03/30 04:41:02;;;;;;;12.00;6.57;;;9.50;72.40;;;;;;6153789;23;20083;-93
2022/03/30 04:43:29;;;;;;;14.60;7.18;;;9.40;73.10;;;;;;6155478;23;20533;-94
2022/03/30 04:45:57;;;;;;;16.50;7.50;;;9.50;73.80;;;;;;6155438;23;20048;-93
2022/03/30 04:48:24;;;;;;;16.40;7.18;;;9.50;74.00;;;;;;6180152;23;20091;-93
2022/03/30 04:50:52;;;;;;;19.00;6.80;;;9.50;74.30;;;;;;6154139;23;20064;-94
2022/03/30 04:53:20;;;;;;;15.15;7.80;;;9.40;74.40;;;;;;6150509;23;20017;-92
2022/03/30 04:55:47;;;;;;;14.73;6.75;;;9.40;74.50;;;;;;6151755;23;20029;-93
2022/03/30 04:58:16;;;;;;;19.00;6.90;;;9.40;75.00;;;;;;6153287;23;20025;-94
2022/03/30 05:00:43;;;;;;;18.08;6.22;;;9.40;75.30;;;;;;6150712;23;20021;-91
2022/03/30 05:03:11;;;;;;;15.23;7.60;;;9.50;75.10;;;;;;6150950;23;20025;-94
2022/03/30 05:05:38;;;;;;;20.27;7.78;;;9.40;75.40;;;;;;6150512;23;20016;-93
2022/03/30 05:08:06;;;;;;;17.23;6.85;;;9.40;76.10;;;;;;6151421;23;20025;-93
2022/03/30 05:10:34;;;;;;;13.35;6.93;;;9.30;76.30;;;;;;6154185;23;20017;-93
2022/03/30 05:13:04;;;;;;;20.20;7.97;;;9.40;75.90;;;;;;6129440;23;20021;-93
2022/03/30 05:15:32;;;;;;;22.88;7.63;;;9.40;75.80;;;;;;6155036;23;20013;-93
2022/03/30 05:18:00;;;;;;;21.77;8.00;;;9.50;75.70;;;;;;6154778;23;20479;-93
2022/03/30 05:20:28;;;;;;;27.63;8.02;;;9.60;75.60;;;;;;6154755;23;20063;-93
2022/03/30 05:22:55;;;;;;;33.63;9.80;;;9.60;75.30;;;;;;6154639;23;20380;-92
2022/03/30 05:25:23;;;;;;;19.80;8.48;;;9.60;75.30;;;;;;6154220;23;20083;-94
2022/03/30 05:27:50;;;;;;;20.48;9.20;;;9.60;75.30;;;;;;6153952;23;20017;-92
2022/03/30 05:30:17;;;;;;;21.08;9.63;;;9.70;75.50;;;;;;6154769;23;20017;-93
2022/03/30 05:32:46;;;;;;;19.15;7.55;;;9.70;75.90;;;;;;6178458;23;20869;-92
2022/03/30 05:35:14;;;;;;;21.38;8.73;;;9.60;76.20;;;;;;6155347;23;20092;-92
2022/03/30 05:37:48;;;;;;;18.40;8.20;;;9.70;76.60;;;;;;6154342;23;20025;-92
2022/03/30 05:40:16;;;;;;;;;;;9.60;77.30;;;;;;6154496;23;20079;-92
2022/03/30 05:42:44;;;;;;;17.33;8.43;;;9.60;77.20;;;;;;6153576;23;19920;-93
2022/03/30 05:45:12;;;;;;;17.30;7.80;;;9.60;77.50;;;;;;6151791;23;20079;-93
2022/03/30 05:47:39;;;;;;;22.88;8.48;;;9.50;77.80;;;;;;6150985;23;20429;-92
2022/03/30 05:50:08;;;;;;;14.85;7.13;;;9.50;78.00;;;;;;6152600;23;20051;-91
2022/03/30 05:52:35;;;;;;;23.42;7.85;;;9.60;77.90;;;;;;6150406;23;20020;-92
2022/03/30 05:55:03;;;;;;;19.58;6.97;;;9.60;77.70;;;;;;6151594;23;20024;-92
2022/03/30 05:57:31;;;;;;;16.25;7.47;;;9.80;77.50;;;;;;6149761;23;20044;-93
2022/03/30 05:59:58;;;;;;;14.88;7.20;;;9.70;77.70;;;;;;6150082;23;20036;-92
2022/03/30 06:02:25;;;;;;;14.68;7.18;;;9.70;77.70;;;;;;6149408;23;20124;-92
2022/03/30 06:04:53;;;;;;;16.42;7.70;;;9.70;77.90;;;;;;6151304;23;20029;-92
2022/03/30 06:07:21;;;;;;;15.45;7.43;;;9.90;77.70;;;;;;6150988;23;20108;-92
2022/03/30 06:09:48;;;;;;;14.38;7.57;;;9.90;77.50;;;;;;6152287;23;20029;-92
2022/03/30 06:12:16;;;;;;;15.50;7.45;;;10.00;77.40;;;;;;6152158;23;20032;-93
2022/03/30 06:14:45;;;;;;;23.33;7.90;;;10.10;77.30;;;;;;6151304;23;20032;-92
2022/03/30 06:17:15;;;;;;;13.80;7.38;;;10.20;76.70;;;;;;6151396;23;20028;-93
2022/03/30 06:19:45;;;;;;;15.23;7.50;;;10.30;76.30;;;;;;6151380;23;20025;-93
2022/03/30 06:22:12;;;;;;;16.50;7.80;;;10.40;76.20;;;;;;6152074;23;20017;-92
2022/03/30 06:24:42;;;;;;;19.42;8.07;;;10.40;76.20;;;;;;6151605;23;20035;-91
2022/03/30 06:27:10;;;;;;;17.15;7.30;;;10.50;76.20;;;;;;6153195;23;20073;-91
2022/03/30 06:29:40;;;;;;;18.98;7.40;;;10.50;76.00;;;;;;6152215;23;20055;-92
2022/03/30 06:32:08;;;;;;;16.65;6.57;;;10.60;76.40;;;;;;6153007;23;20028;-91
2022/03/30 06:34:36;;;;;;;14.02;7.53;;;10.70;75.90;;;;;;6151944;23;20025;-91
2022/03/30 06:37:05;;;;;;;17.23;7.50;;;10.80;75.50;;;;;;6152259;23;20515;-92
2022/03/30 06:39:35;;;;;;;21.83;8.20;;;10.90;75.60;;;;;;6150847;23;20056;-90
2022/03/30 06:42:09;;;;;;;14.88;7.30;;;11.00;75.10;;;;;;6152275;23;20063;-92
2022/03/30 06:44:38;;;;;;;16.73;7.75;;;11.20;74.70;;;;;;6153590;23;20418;-92
2022/03/30 06:47:06;;;;;;;18.90;9.10;;;11.30;74.30;;;;;;6151327;23;20017;-92
2022/03/30 06:49:33;;;;;;;15.88;9.13;;;11.50;73.80;;;;;;6150243;23;20032;-92
2022/03/30 06:52:01;;;;;;;17.40;8.88;;;11.60;73.70;;;;;;6150337;23;20238;-92
2022/03/30 06:54:29;;;;;;;20.45;8.57;;;11.70;73.30;;;;;;6151196;23;20028;-93
2022/03/30 06:56:59;;;;;;;21.23;8.55;;;11.80;73.10;;;;;;6150610;23;20075;-91
2022/03/30 06:59:27;;;;;;;17.45;7.85;;;11.80;73.10;;;;;;6150881;23;20104;-91
2022/03/30 07:01:58;;;;;;;16.33;7.25;;;12.00;72.60;;;;;;6148461;23;20021;-93
2022/03/30 07:04:26;;;;;;;21.88;8.38;;;12.20;71.60;;;;;;6137381;23;20088;-92
2022/03/30 07:12:26;;;;;;;16.23;8.82;;;12.30;71.20;;;;;;6173102;23;20456;-92
2022/03/30 07:14:54;;;;;;;20.15;8.55;;;12.50;70.30;;;;;;6151009;23;20347;-93
2022/03/30 07:17:21;;;;;;;19.10;9.25;;;12.60;70.70;;;;;;6152148;23;20452;-93
2022/03/30 07:19:48;;;;;;;13.75;7.57;;;12.70;70.10;;;;;;6150756;23;20033;-92
2022/03/30 07:22:16;;;;;;;34.28;19.08;;;12.60;69.30;;;;;;6151932;23;20017;-93
2022/03/30 07:24:44;;;;;;;24.98;9.82;;;12.60;69.30;;;;;;6151277;23;20057;-92
2022/03/30 07:27:11;;;;;;;16.85;7.93;;;12.70;69.90;;;;;;6151127;23;20037;-93
2022/03/30 07:29:38;;;;;;;20.00;9.52;;;12.70;69.30;;;;;;6151924;23;20021;-93
2022/03/30 07:32:06;;;;;;;19.17;8.50;;;12.90;69.40;;;;;;6152726;23;20021;-93
2022/03/30 07:34:33;;;;;;;16.33;8.43;;;13.00;68.90;;;;;;6151881;23;20031;-92
2022/03/30 07:37:01;;;;;;;16.75;7.97;;;13.20;68.70;;;;;;6151735;23;20017;-92
2022/03/30 07:39:28;;;;;;;19.88;8.32;;;13.50;68.60;;;;;;6150663;23;20708;-91
2022/03/30 07:41:55;;;;;;;17.52;8.57;;;13.70;68.30;;;;;;6149987;23;20333;-94
2022/03/30 07:44:23;;;;;;;17.42;9.18;;;13.50;67.60;;;;;;6149628;23;20060;-93
2022/03/30 07:46:50;;;;;;;17.05;7.85;;;13.60;67.50;;;;;;6150401;23;20470;-92
2022/03/30 07:49:18;;;;;;;18.77;8.75;;;13.70;67.20;;;;;;6151557;23;20605;-93
2022/03/30 07:51:48;;;;;;;15.32;8.10;;;13.60;67.20;;;;;;6151883;23;20024;-93
2022/03/30 07:54:15;;;;;;;19.15;8.32;;;13.70;66.90;;;;;;6150960;23;20025;-92
2022/03/30 07:56:42;;;;;;;20.20;9.43;;;13.60;67.40;;;;;;6150067;23;20021;-93
2022/03/30 07:59:09;;;;;;;27.85;9.05;;;13.70;67.40;;;;;;6152054;23;20017;-92
2022/03/30 08:01:37;;;;;;;16.02;9.38;;;13.80;66.00;;;;;;6147885;23;20029;-93
2022/03/30 08:04:04;;;;;;;13.88;8.02;;;13.80;66.10;;;;;;6150677;23;20789;-92
2022/03/30 08:06:34;;;;;;;17.33;8.70;;;13.70;66.30;;;;;;6149401;23;20745;-93
2022/03/30 08:09:02;;;;;;;24.92;9.15;;;13.80;66.20;;;;;;6150422;23;20029;-91
2022/03/30 08:11:30;;;;;;;23.73;9.95;;;13.80;66.10;;;;;;6149269;23;20025;-95
2022/03/30 08:13:57;;;;;;;21.02;9.75;;;14.00;66.30;;;;;;6149629;23;20021;-93
2022/03/30 08:16:25;;;;;;;22.27;9.73;;;14.10;64.70;;;;;;6150417;23;20020;-93
2022/03/30 08:18:52;;;;;;;22.08;9.45;;;14.10;65.00;;;;;;6150528;23;20024;-91
2022/03/30 08:24:06;;;;;;;16.75;9.05;;;14.40;66.00;;;;;;6150317;23;20017;-93
2022/03/30 08:26:33;;;;;;;19.38;8.93;;;14.80;63.60;;;;;;6150523;23;20025;-93
2022/03/30 08:29:01;;;;;;;19.73;10.15;;;14.80;63.70;;;;;;6150265;23;20028;-94
2022/03/30 08:31:48;;;;;;;17.02;8.27;;;15.00;63.00;;;;;;6171439;23;20021;-94
2022/03/30 08:34:18;;;;;;;167.60;73.97;;;15.00;62.70;;;;;;6150301;23;20124;-92
2022/03/30 08:36:45;;;;;;;21.63;9.85;;;15.10;62.30;;;;;;6150628;23;20457;-93
2022/03/30 08:39:13;;;;;;;25.98;13.48;;;14.90;62.90;;;;;;6149737;23;20017;-93
2022/03/30 08:41:45;;;;;;;20.80;9.68;;;15.00;62.70;;;;;;6172495;23;20563;-92
2022/03/30 08:44:14;;;;;;;16.20;8.63;;;15.10;61.90;;;;;;6176317;23;20021;-93
2022/03/30 08:46:45;;;;;;;20.75;10.18;;;15.10;62.20;;;;;;6149936;23;20029;-93
2022/03/30 08:49:14;;;;;;;16.25;9.15;;;15.30;61.50;;;;;;6151114;23;20024;-93
2022/03/30 08:51:47;;;;;;;22.60;11.90;;;15.40;61.90;;;;;;6148337;23;20021;-94
2022/03/30 08:54:16;;;;;;;22.20;10.85;;;15.50;61.50;;;;;;6139373;23;20071;-93
2022/03/30 08:56:45;;;;;;;19.40;9.80;;;15.50;60.50;;;;;;6145091;23;20023;-94
2022/03/30 08:59:19;;;;;;;16.20;8.95;;;15.60;60.50;;;;;;6148138;23;20042;-93
2022/03/30 09:01:47;;;;;;;17.90;8.10;;;15.70;60.20;;;;;;6141075;23;20765;-93
2022/03/30 09:04:17;;;;;;;16.00;7.88;;;15.70;60.40;;;;;;6145948;23;20079;-93
2022/03/30 09:06:51;;;;;;;20.88;8.95;;;15.70;61.20;;;;;;6138019;23;20028;-92
2022/03/30 09:09:33;;;;;;;21.80;9.20;;;15.80;60.40;;;;;;6162582;23;20025;-93
2022/03/30 09:12:06;;;;;;;19.92;9.63;;;15.80;59.80;;;;;;6143118;23;20013;-92
2022/03/30 09:14:37;;;;;;;16.00;7.93;;;16.00;60.20;;;;;;6147569;23;20024;-92
2022/03/30 09:17:07;;;;;;;20.50;10.02;;;16.10;59.40;;;;;;6149774;23;20016;-93
2022/03/30 09:19:38;;;;;;;18.52;9.13;;;16.00;59.70;;;;;;6147016;23;20491;-94
2022/03/30 09:22:10;;;;;;;16.00;7.90;;;16.10;60.50;;;;;;6152531;23;20084;-94
2022/03/30 09:24:41;;;;;;;15.68;8.45;;;16.10;59.90;;;;;;6145494;23;20061;-93
2022/03/30 09:27:09;;;;;;;16.60;8.23;;;16.20;59.80;;;;;;6144161;23;20120;-94
2022/03/30 09:29:37;;;;;;;13.93;7.82;;;16.20;60.20;;;;;;6139902;23;20475;-94
2022/03/30 09:32:25;;;;;;;19.02;8.68;;;16.30;59.50;;;;;;6148121;23;20029;-94
2022/03/30 09:34:54;;;;;;;14.27;8.07;;;16.30;59.80;;;;;;6146588;23;20025;-93
2022/03/30 09:37:22;;;;;;;21.13;9.40;;;16.40;59.70;;;;;;6122993;23;20026;-93
2022/03/30 09:39:50;;;;;;;18.55;8.27;;;16.40;59.40;;;;;;6143629;23;20026;-93
2022/03/30 09:42:18;;;;;;;15.30;8.75;;;16.40;58.60;;;;;;6147630;23;20018;-94
2022/03/30 09:44:55;;;;;;;15.68;8.45;;;16.50;58.10;;;;;;6120555;23;20026;-94
2022/03/30 09:47:35;;;;;;;18.55;8.85;;;16.30;56.80;;;;;;6125122;23;20030;-93
2022/03/30 09:50:08;;;;;;;17.73;9.32;;;16.30;57.60;;;;;;6148109;23;20025;-92
2022/03/30 09:52:37;;;;;;;16.35;8.85;;;16.30;57.90;;;;;;6101005;23;20045;-95
2022/03/30 09:55:05;;;;;;;21.92;8.60;;;16.30;57.10;;;;;;6126905;23;20040;-93
2022/03/30 09:57:44;;;;;;;21.27;9.88;;;16.20;57.00;;;;;;6124059;23;20035;-95
2022/03/30 10:00:17;;;;;;;17.80;8.52;;;16.50;56.60;;;;;;6149185;23;20021;-94
2022/03/30 10:02:47;;;;;;;20.42;9.40;;;16.50;56.40;;;;;;6151436;23;20021;-94
2022/03/30 10:05:17;;;;;;;16.27;8.73;;;16.40;57.50;;;;;;6142449;23;20471;-94
2022/03/30 10:07:45;;;;;;;19.67;9.20;;;16.50;56.90;;;;;;6146610;23;20017;-94
2022/03/30 10:10:17;;;;;;;16.48;8.18;;;16.50;57.70;;;;;;6151199;23;20021;-94
2022/03/30 10:12:48;;;;;;;26.63;10.23;;;16.50;56.80;;;;;;6146457;23;20032;-94
2022/03/30 10:15:17;;;;;;;22.13;9.88;;;16.60;56.90;;;;;;6148256;23;20773;-94
2022/03/30 10:17:47;;;;;;;17.20;9.05;;;16.60;56.90;;;;;;6145143;23;20022;-96
2022/03/30 10:20:20;;;;;;;15.68;8.98;;;16.70;56.90;;;;;;6150241;23;20361;-94
2022/03/30 10:23:06;;;;;;;17.40;8.63;;;16.60;57.10;;;;;;6145013;23;20025;-95
2022/03/30 10:25:56;;;;;;;17.95;8.57;;;16.90;58.40;;;;;;6151630;23;20116;-95
2022/03/30 10:28:47;;;;;;;15.98;8.00;;;16.70;57.10;;;;;;6152475;23;20033;-93
2022/03/30 10:31:25;;;;;;;16.83;8.38;;;16.40;57.20;;;;;;6147898;23;20021;-94
2022/03/30 10:33:53;;;;;;;14.02;8.00;;;16.60;57.70;;;;;;6127061;23;20053;-94
2022/03/30 10:36:28;;;;;;;16.58;7.90;;;16.90;58.00;;;;;;6146930;23;20017;-95
2022/03/30 10:39:17;;;;;;;19.63;7.43;;;17.00;56.20;;;;;;6130170;23;20033;-94
2022/03/30 10:42:11;;;;;;;16.80;7.22;;;16.70;56.50;;;;;;6131706;23;20022;-94
2022/03/30 10:44:42;;;;;;;23.85;7.68;;;16.70;57.00;;;;;;6149768;23;20119;-93
2022/03/30 10:47:11;;;;;;;16.03;7.47;;;16.90;56.40;;;;;;6150943;23;20254;-95
2022/03/30 10:49:43;;;;;;;20.25;7.07;;;16.80;55.60;;;;;;6148737;23;20022;-93
2022/03/30 10:52:38;;;;;;;12.65;7.10;;;16.90;56.00;;;;;;6145244;23;20056;-94
2022/03/30 10:55:12;;;;;;;12.13;7.53;;;16.80;55.40;;;;;;6149716;23;20029;-94
2022/03/30 10:58:01;;;;;;;13.02;7.40;;;17.10;56.60;;;;;;6147075;23;20025;-94
2022/03/30 11:00:33;;;;;;;12.15;6.93;;;17.20;56.40;;;;;;6150671;23;20072;-94
2022/03/30 11:03:16;;;;;;;13.18;6.93;;;17.30;57.00;;;;;;6129891;23;20037;-94
2022/03/30 11:06:05;;;;;;;16.30;6.82;;;17.00;57.20;;;;;;6150115;23;20025;-95
2022/03/30 11:08:36;;;;;;;15.27;6.95;;;17.00;57.70;;;;;;6131157;23;20069;-94
2022/03/30 11:11:26;;;;;;;17.85;7.35;;;17.30;57.00;;;;;;6128088;23;20029;-95
2022/03/30 11:14:32;;;;;;;15.95;8.18;;;17.30;56.30;;;;;;6132410;23;20739;-94
2022/03/30 11:17:06;;;;;;;11.80;6.93;;;17.30;56.50;;;;;;6150198;23;20053;-95
2022/03/30 11:19:56;;;;;;;14.25;6.88;;;17.40;56.10;;;;;;6146494;23;20014;-95
2022/03/30 11:22:33;;;;;;;15.68;7.45;;;17.40;55.10;;;;;;6129522;23;20028;-95
2022/03/30 11:25:08;;;;;;;16.63;7.30;;;17.40;55.30;;;;;;6128455;23;20776;-93
2022/03/30 11:27:40;;;;;;;15.70;7.20;;;17.40;55.60;;;;;;6124420;23;20594;-95
2022/03/30 11:30:16;;;;;;;14.32;6.28;;;17.70;55.00;;;;;;6130076;23;20711;-94
2022/03/30 11:32:58;;;;;;;19.70;7.85;;;17.70;54.40;;;;;;6130082;23;20021;-94
2022/03/30 11:35:31;;;;;;;17.35;7.53;;;17.70;54.90;;;;;;6146337;23;20025;-94
2022/03/30 11:38:03;;;;;;;15.88;6.75;;;17.90;54.50;;;;;;6149571;23;20029;-94
2022/03/30 11:40:33;;;;;;;;;;;17.60;54.60;;;;;;6151077;23;20029;-94
2022/03/30 11:43:01;;;;;;;15.18;6.90;;;17.50;54.30;;;;;;6175772;23;19935;-94
2022/03/30 11:45:51;;;;;;;13.27;7.38;;;17.60;54.50;;;;;;6148257;23;20088;-95
2022/03/30 11:48:18;;;;;;;13.30;6.60;;;17.70;54.30;;;;;;6151090;23;20026;-95
2022/03/30 11:50:48;;;;;;;14.40;6.57;;;17.80;54.30;;;;;;6150973;23;20104;-94
2022/03/30 11:53:20;;;;;;;12.30;6.78;;;17.60;54.90;;;;;;6149674;23;20420;-93
2022/03/30 11:55:59;;;;;;;12.40;6.50;;;17.60;55.00;;;;;;6151089;23;20523;-94
2022/03/30 11:58:44;;;;;;;12.50;7.13;;;17.30;55.70;;;;;;6146550;23;20079;-95
2022/03/30 12:01:15;;;;;;;14.88;8.13;;;17.30;55.60;;;;;;6150816;23;20025;-94
2022/03/30 12:03:42;;;;;;;15.10;8.40;;;17.10;55.60;;;;;;6123614;23;20026;-94
2022/03/30 12:06:11;;;;;;;14.80;8.00;;;17.10;55.70;;;;;;6149795;23;20053;-95
2022/03/30 12:08:46;;;;;;;20.75;8.65;;;17.30;55.60;;;;;;6151761;23;20022;-95
2022/03/30 12:11:28;;;;;;;14.88;7.95;;;17.10;55.40;;;;;;6152809;23;20033;-93
2022/03/30 12:13:57;;;;;;;17.60;8.50;;;17.10;55.20;;;;;;6152000;23;20025;-94
2022/03/30 12:16:27;;;;;;;13.40;8.20;;;17.20;55.50;;;;;;6150861;23;20029;-94
2022/03/30 12:18:58;;;;;;;14.50;7.75;;;17.20;55.70;;;;;;6124561;23;20025;-93
2022/03/30 12:21:28;;;;;;;;;;;17.40;55.60;;;;;;6156044;23;20021;-94
2022/03/30 12:23:58;;;;;;;14.85;7.25;;;17.30;55.20;;;;;;6151411;23;19920;-94
2022/03/30 12:26:54;;;;;;;13.80;8.05;;;17.30;55.00;;;;;;6131029;23;20072;-94
2022/03/30 12:29:24;;;;;;;14.23;7.68;;;17.20;54.90;;;;;;6151656;23;20021;-93
2022/03/30 12:31:54;;;;;;;16.75;7.55;;;17.10;55.00;;;;;;6151979;23;20160;-94
2022/03/30 12:34:23;;;;;;;13.43;7.00;;;17.10;55.40;;;;;;6151361;23;20033;-93
2022/03/30 12:37:00;;;;;;;16.45;8.23;;;17.10;55.30;;;;;;6152668;23;20017;-95
2022/03/30 12:39:40;;;;;;;19.52;8.23;;;16.80;55.30;;;;;;6126660;23;20035;-94
2022/03/30 12:42:14;;;;;;;12.63;8.02;;;16.70;55.80;;;;;;6147522;23;20277;-94
2022/03/30 12:44:51;;;;;;;17.90;8.15;;;16.80;55.70;;;;;;6150213;23;20108;-94
2022/03/30 12:47:30;;;;;;;15.35;8.00;;;16.70;55.70;;;;;;6153346;23;20026;-94
2022/03/30 12:50:10;;;;;;;16.50;8.70;;;16.80;55.80;;;;;;6150304;23;20018;-95
2022/03/30 12:53:15;;;;;;;14.45;7.80;;;16.60;54.70;;;;;;6149224;23;20055;-95
2022/03/30 12:55:46;;;;;;;16.52;8.68;;;16.80;54.70;;;;;;6150468;23;20029;-95
2022/03/30 12:58:20;;;;;;;16.57;7.93;;;16.90;55.20;;;;;;6128042;23;20024;-94
2022/03/30 13:00:53;;;;;;;19.40;8.15;;;16.80;54.80;;;;;;6153041;23;20025;-94
2022/03/30 13:03:33;;;;;;;18.92;9.05;;;16.80;54.70;;;;;;6148019;23;20148;-95
2022/03/30 13:06:12;;;;;;;13.30;6.97;;;16.90;54.30;;;;;;6155257;23;20021;-95
2022/03/30 13:08:40;;;;;;;16.17;7.57;;;16.70;54.20;;;;;;6131028;23;20425;-95